METAR Data
IDs: Format: Raw Decoded Include TAF

Data at: 0200 UTC 01 Mar 2021

ZWWW 010130Z VRB01MPS 4000 FU NSC M12/M16 Q1029 NOSIG